createdAt,value
2017-10-30T00:01:31.342Z,5.70
2017-10-30T00:03:57.587Z,5.22
2017-10-30T00:06:23.835Z,5.12
2017-10-30T00:08:50.032Z,4.72
2017-10-30T00:11:16.264Z,4.78
2017-10-30T00:13:42.526Z,4.43
2017-10-30T00:16:08.739Z,5.05
2017-10-30T00:18:34.980Z,5.47
2017-10-30T00:21:01.590Z,5.60
2017-10-30T00:23:27.821Z,5.53
2017-10-30T00:25:54.048Z,5.85
2017-10-30T00:28:20.278Z,5.78
2017-10-30T00:30:46.521Z,5.50
2017-10-30T00:33:12.744Z,5.10
2017-10-30T00:35:38.950Z,5.95
2017-10-30T00:38:05.175Z,5.03
2017-10-30T00:40:31.405Z,5.80
2017-10-30T00:42:57.613Z,5.60
2017-10-30T00:45:23.843Z,5.80
2017-10-30T00:47:50.070Z,5.00
2017-10-30T00:50:16.307Z,5.12
2017-10-30T00:52:42.574Z,4.80
2017-10-30T00:55:08.804Z,5.35
2017-10-30T00:57:35.014Z,6.43
2017-10-30T01:00:01.244Z,6.00
2017-10-30T01:02:27.491Z,6.10
2017-10-30T01:04:53.689Z,5.93
2017-10-30T01:07:19.919Z,5.40
2017-10-30T01:09:46.140Z,4.90
2017-10-30T01:12:12.354Z,7.07
2017-10-30T01:14:38.850Z,6.07
2017-10-30T01:17:05.453Z,4.65
2017-10-30T01:19:31.650Z,4.87
2017-10-30T01:21:57.916Z,5.57
2017-10-30T01:24:24.114Z,5.35
2017-10-30T01:26:50.337Z,5.40
2017-10-30T01:29:16.542Z,5.15
2017-10-30T01:31:42.794Z,5.70
2017-10-30T01:34:09.010Z,5.47
2017-10-30T01:36:35.253Z,6.12
2017-10-30T01:39:01.451Z,5.20
2017-10-30T01:41:27.699Z,6.90
2017-10-30T01:43:53.934Z,5.32
2017-10-30T01:46:20.199Z,5.70
2017-10-30T01:48:46.433Z,5.45
2017-10-30T01:51:12.658Z,5.80
2017-10-30T01:53:38.870Z,5.00
2017-10-30T01:56:05.094Z,6.20
2017-10-30T01:58:31.334Z,6.05
2017-10-30T02:00:57.540Z,5.87
2017-10-30T02:03:23.762Z,5.85
2017-10-30T02:05:49.981Z,5.12
2017-10-30T02:08:16.209Z,5.97
2017-10-30T02:10:43.386Z,6.18
2017-10-30T02:13:09.616Z,5.60
2017-10-30T02:15:35.820Z,5.68
2017-10-30T02:18:02.085Z,6.55
2017-10-30T02:20:28.388Z,5.28
2017-10-30T02:22:55.649Z,4.22
2017-10-30T02:25:21.885Z,4.78
2017-10-30T02:27:48.142Z,5.65
2017-10-30T02:30:14.775Z,5.62
2017-10-30T02:32:41.037Z,5.85
2017-10-30T02:35:07.284Z,6.55
2017-10-30T02:37:33.541Z,5.53
2017-10-30T02:39:59.772Z,6.20
2017-10-30T02:42:26.004Z,6.68
2017-10-30T02:44:52.267Z,7.10
2017-10-30T02:47:18.974Z,6.68
2017-10-30T02:49:45.208Z,6.22
2017-10-30T02:52:11.446Z,6.65
2017-10-30T02:54:38.077Z,5.25
2017-10-30T02:57:04.301Z,6.12
2017-10-30T02:59:30.546Z,7.35
2017-10-30T03:01:57.138Z,7.20
2017-10-30T03:04:23.389Z,7.20
2017-10-30T03:06:49.656Z,8.55
2017-10-30T03:09:15.920Z,9.30
2017-10-30T03:11:42.182Z,8.65
2017-10-30T03:14:08.448Z,9.13
2017-10-30T03:16:34.680Z,10.40
2017-10-30T03:19:00.944Z,9.40
2017-10-30T03:21:27.242Z,10.90
2017-10-30T03:23:53.481Z,10.80
2017-10-30T03:26:19.705Z,12.25
2017-10-30T03:28:45.936Z,8.85
2017-10-30T03:31:12.156Z,9.02
2017-10-30T03:33:38.415Z,8.88
2017-10-30T03:36:04.637Z,10.07
2017-10-30T03:38:30.848Z,8.43
2017-10-30T03:40:57.077Z,9.15
2017-10-30T03:43:23.298Z,9.27
2017-10-30T03:45:49.543Z,9.35
2017-10-30T03:48:15.765Z,10.40
2017-10-30T03:50:42.017Z,10.23
2017-10-30T03:53:08.224Z,16.70
2017-10-30T03:55:34.453Z,17.98
2017-10-30T03:58:00.662Z,16.05
2017-10-30T04:00:26.910Z,15.68
2017-10-30T04:02:53.133Z,13.07
2017-10-30T04:05:19.335Z,11.95
2017-10-30T04:07:45.549Z,12.37
2017-10-30T04:10:18.941Z,9.77
2017-10-30T04:12:45.514Z,10.18
2017-10-30T04:15:11.721Z,7.55
2017-10-30T04:17:37.914Z,8.70
2017-10-30T04:20:04.139Z,8.50
2017-10-30T04:22:30.345Z,6.50
2017-10-30T04:24:56.576Z,8.02
2017-10-30T04:27:22.790Z,10.65
2017-10-30T04:29:48.996Z,12.23
2017-10-30T04:32:15.199Z,9.85
2017-10-30T04:34:41.777Z,8.32
2017-10-30T04:37:07.979Z,8.48
2017-10-30T04:39:34.184Z,7.55
2017-10-30T04:42:00.378Z,8.73
2017-10-30T04:44:26.597Z,8.27
2017-10-30T04:46:52.805Z,6.68
2017-10-30T04:49:20.732Z,6.93
2017-10-30T04:51:46.916Z,6.75
2017-10-30T04:54:13.102Z,7.43
2017-10-30T04:56:39.325Z,7.72
2017-10-30T04:59:05.885Z,7.22
2017-10-30T05:01:32.110Z,7.72
2017-10-30T05:03:58.348Z,7.65
2017-10-30T05:06:24.582Z,7.18
2017-10-30T05:08:50.793Z,7.18
2017-10-30T05:11:17.013Z,9.75
2017-10-30T05:13:43.246Z,9.18
2017-10-30T05:16:09.461Z,10.30
2017-10-30T05:18:35.651Z,11.00
2017-10-30T05:21:01.874Z,12.43
2017-10-30T05:23:28.083Z,13.05
2017-10-30T05:25:54.316Z,12.63
2017-10-30T05:28:27.437Z,11.88
2017-10-30T05:30:53.656Z,10.18
2017-10-30T05:33:20.715Z,9.82
2017-10-30T05:35:47.343Z,7.55
2017-10-30T05:38:13.517Z,8.25
2017-10-30T05:40:39.741Z,7.40
2017-10-30T05:43:05.974Z,7.30
2017-10-30T05:45:32.217Z,7.30
2017-10-30T05:48:05.204Z,7.18
2017-10-30T05:50:31.427Z,7.43
2017-10-30T05:52:58.637Z,7.93
2017-10-30T05:55:24.866Z,9.23
2017-10-30T05:57:51.083Z,8.05
2017-10-30T06:00:17.323Z,7.68
2017-10-30T06:02:43.923Z,7.80
2017-10-30T06:05:10.116Z,7.28
2017-10-30T06:07:36.337Z,7.82
2017-10-30T06:10:02.547Z,6.55
2017-10-30T06:12:29.164Z,7.75
2017-10-30T06:14:55.774Z,6.47
2017-10-30T06:17:21.997Z,6.55
2017-10-30T06:19:48.197Z,5.85
2017-10-30T06:22:14.886Z,7.10
2017-10-30T06:24:41.113Z,6.15
2017-10-30T06:27:07.343Z,6.45
2017-10-30T06:29:33.589Z,6.68
2017-10-30T06:32:00.191Z,6.75
2017-10-30T06:34:26.381Z,5.85
2017-10-30T06:36:52.617Z,5.32
2017-10-30T06:39:18.810Z,5.55
2017-10-30T06:41:45.415Z,7.15
2017-10-30T06:44:11.613Z,6.30
2017-10-30T06:46:37.832Z,6.43
2017-10-30T06:49:04.060Z,5.97
2017-10-30T06:51:30.290Z,5.93
2017-10-30T06:53:56.514Z,6.47
2017-10-30T06:56:22.761Z,5.45
2017-10-30T06:58:49.006Z,6.97
2017-10-30T07:01:15.192Z,5.10
2017-10-30T07:03:41.415Z,6.15
2017-10-30T07:06:10.420Z,5.90
2017-10-30T07:08:37.562Z,5.87
2017-10-30T07:11:03.764Z,6.18
2017-10-30T07:13:30.403Z,5.65
2017-10-30T07:15:57.020Z,4.80
2017-10-30T07:18:23.277Z,6.03
2017-10-30T07:20:49.907Z,6.03
2017-10-30T07:23:16.514Z,6.10
2017-10-30T07:25:42.723Z,5.87
2017-10-30T07:28:08.938Z,6.12
2017-10-30T07:30:35.205Z,5.65
2017-10-30T07:33:01.440Z,5.50
2017-10-30T07:35:27.669Z,5.57
2017-10-30T07:37:53.882Z,6.45
2017-10-30T07:40:20.150Z,5.10
2017-10-30T07:42:46.412Z,4.93
2017-10-30T07:45:12.645Z,5.22
2017-10-30T07:47:38.868Z,5.87
2017-10-30T07:50:05.097Z,4.93
2017-10-30T07:52:31.379Z,5.20
2017-10-30T07:54:57.642Z,4.93
2017-10-30T07:57:23.892Z,5.82
2017-10-30T07:59:50.141Z,5.40
2017-10-30T08:02:16.367Z,4.85
2017-10-30T08:04:42.676Z,4.60
2017-10-30T08:07:08.931Z,4.93
2017-10-30T08:09:35.179Z,5.10
2017-10-30T08:12:01.475Z,7.45
2017-10-30T08:14:27.756Z,5.20
2017-10-30T08:16:54.030Z,4.40
2017-10-30T08:19:20.305Z,4.25
2017-10-30T08:21:46.584Z,3.92
2017-10-30T08:24:12.878Z,3.83
2017-10-30T08:26:39.130Z,4.68
2017-10-30T08:29:05.388Z,4.57
2017-10-30T08:31:31.633Z,4.70
2017-10-30T08:33:57.904Z,4.40
2017-10-30T08:36:24.161Z,4.35
2017-10-30T08:38:50.448Z,4.70
2017-10-30T08:41:16.688Z,3.78
2017-10-30T08:43:42.938Z,5.20
2017-10-30T08:46:09.175Z,4.12
2017-10-30T08:48:35.465Z,4.75
2017-10-30T08:51:01.708Z,4.90
2017-10-30T08:53:27.986Z,4.50
2017-10-30T08:55:54.237Z,4.05
2017-10-30T08:58:20.874Z,5.18
2017-10-30T09:00:47.467Z,5.22
2017-10-30T09:03:13.735Z,4.37
2017-10-30T09:05:40.412Z,5.18
2017-10-30T09:08:07.679Z,6.40
2017-10-30T09:10:33.974Z,4.93
2017-10-30T09:13:00.216Z,5.50
2017-10-30T09:15:26.476Z,5.00
2017-10-30T09:17:52.725Z,6.62
2017-10-30T09:20:19.370Z,4.53
2017-10-30T09:22:46.054Z,4.53
2017-10-30T09:25:12.318Z,5.62
2017-10-30T09:27:38.604Z,5.00
2017-10-30T09:30:04.856Z,4.65
2017-10-30T09:32:31.124Z,4.90
2017-10-30T09:34:57.775Z,4.45
2017-10-30T09:37:24.461Z,3.28
2017-10-30T09:39:50.740Z,5.25
2017-10-30T09:42:17.355Z,4.78
2017-10-30T09:44:43.655Z,4.00
2017-10-30T09:47:09.909Z,3.67
2017-10-30T09:49:36.193Z,4.10
2017-10-30T09:52:02.415Z,4.65
2017-10-30T09:54:28.714Z,4.50
2017-10-30T09:56:54.981Z,3.20
2017-10-30T09:59:21.311Z,3.60
2017-10-30T10:01:47.605Z,3.90
2017-10-30T10:04:13.932Z,4.23
2017-10-30T10:06:40.188Z,4.03
2017-10-30T10:09:06.457Z,3.47
2017-10-30T10:11:32.687Z,4.22
2017-10-30T10:13:58.955Z,3.72
2017-10-30T10:16:25.614Z,3.47
2017-10-30T10:18:51.861Z,3.85
2017-10-30T10:21:18.123Z,4.32
2017-10-30T10:23:44.404Z,2.40
2017-10-30T10:26:10.664Z,3.27
2017-10-30T10:28:36.986Z,3.27
2017-10-30T10:31:03.239Z,4.07
2017-10-30T10:33:29.477Z,3.23
2017-10-30T10:35:56.141Z,4.03
2017-10-30T10:38:22.417Z,2.90
2017-10-30T10:40:48.932Z,3.35
2017-10-30T10:43:15.185Z,3.20
2017-10-30T10:45:41.446Z,3.03
2017-10-30T10:48:08.090Z,2.43
2017-10-30T10:50:34.747Z,2.50
2017-10-30T10:53:01.008Z,2.60
2017-10-30T10:55:27.281Z,2.20
2017-10-30T10:57:53.889Z,2.77
2017-10-30T11:00:20.200Z,2.23
2017-10-30T11:02:46.914Z,2.70
2017-10-30T11:05:13.173Z,3.23
2017-10-30T11:07:39.414Z,2.90
2017-10-30T11:10:05.650Z,2.57
2017-10-30T11:12:31.908Z,2.67
2017-10-30T11:14:58.185Z,2.73
2017-10-30T11:17:24.444Z,2.93
2017-10-30T11:19:50.705Z,2.30
2017-10-30T11:22:16.964Z,2.90
2017-10-30T11:24:43.198Z,2.00
2017-10-30T11:27:09.457Z,2.47
2017-10-30T11:29:35.683Z,2.67
2017-10-30T11:32:01.941Z,2.97
2017-10-30T11:34:28.196Z,2.87
2017-10-30T11:36:55.431Z,2.47
2017-10-30T11:39:21.683Z,3.00
2017-10-30T11:41:48.839Z,2.50
2017-10-30T11:44:15.083Z,2.57
2017-10-30T11:46:41.347Z,2.60
2017-10-30T11:49:07.592Z,2.57
2017-10-30T11:51:33.832Z,3.10
2017-10-30T11:54:00.081Z,2.27
2017-10-30T11:56:26.415Z,2.60
2017-10-30T11:58:53.068Z,2.67
2017-10-30T12:01:19.321Z,2.83
2017-10-30T12:03:45.553Z,2.60
2017-10-30T12:06:11.826Z,2.73
2017-10-30T12:08:38.087Z,3.30
2017-10-30T12:11:04.338Z,3.00
2017-10-30T12:13:31.343Z,3.40
2017-10-30T12:15:57.554Z,2.77
2017-10-30T12:18:23.854Z,2.80
2017-10-30T12:20:50.092Z,2.40
2017-10-30T12:23:16.507Z,2.75
2017-10-30T12:25:43.102Z,2.87
2017-10-30T12:28:10.203Z,2.70
2017-10-30T12:30:37.281Z,2.65
2017-10-30T12:33:03.531Z,3.10
2017-10-30T12:35:29.827Z,2.35
2017-10-30T12:37:56.086Z,2.50
2017-10-30T12:40:22.319Z,2.33
2017-10-30T12:42:48.567Z,2.30
2017-10-30T12:45:15.175Z,2.60
2017-10-30T12:47:41.458Z,2.45
2017-10-30T12:50:07.676Z,3.33
2017-10-30T12:52:34.343Z,2.83
2017-10-30T12:55:00.633Z,3.47
2017-10-30T12:57:26.923Z,2.33
2017-10-30T12:59:53.181Z,3.50
2017-10-30T13:02:19.837Z,2.90
2017-10-30T13:04:46.550Z,2.80
2017-10-30T13:07:12.841Z,2.78
2017-10-30T13:09:39.131Z,2.90
2017-10-30T13:12:05.771Z,3.67
2017-10-30T13:14:32.702Z,2.10
2017-10-30T13:16:58.936Z,3.00
2017-10-30T13:19:25.201Z,3.15
2017-10-30T13:21:52.246Z,3.12
2017-10-30T13:24:18.517Z,2.78
2017-10-30T13:26:44.756Z,3.08
2017-10-30T13:29:11.016Z,3.00
2017-10-30T13:31:37.599Z,3.15
2017-10-30T13:34:04.249Z,3.10
2017-10-30T13:36:30.512Z,3.60
2017-10-30T13:38:57.172Z,3.10
2017-10-30T13:41:23.387Z,2.17
2017-10-30T13:43:50.012Z,3.10
2017-10-30T13:46:16.646Z,3.15
2017-10-30T13:48:50.240Z,3.20
2017-10-30T13:51:16.839Z,2.75
2017-10-30T13:53:43.112Z,2.45
2017-10-30T13:56:09.345Z,3.72
2017-10-30T13:58:35.973Z,2.60
2017-10-30T14:01:02.628Z,3.17
2017-10-30T14:03:29.623Z,3.55
2017-10-30T14:05:56.396Z,2.67
2017-10-30T14:08:22.916Z,4.28
2017-10-30T14:10:49.192Z,2.58
2017-10-30T14:13:15.438Z,2.55
2017-10-30T14:15:41.725Z,3.80
2017-10-30T14:18:10.251Z,2.67
2017-10-30T14:20:36.610Z,2.40
2017-10-30T14:23:02.865Z,3.00
2017-10-30T14:25:29.454Z,2.60
2017-10-30T14:27:56.430Z,2.50
2017-10-30T14:30:22.745Z,2.72
2017-10-30T14:32:49.034Z,2.70
2017-10-30T14:35:15.312Z,3.10
2017-10-30T14:37:41.611Z,2.78
2017-10-30T14:40:07.954Z,2.92
2017-10-30T14:42:34.225Z,3.47
2017-10-30T14:45:00.857Z,4.10
2017-10-30T14:47:27.104Z,3.90
2017-10-30T14:49:53.747Z,3.45
2017-10-30T14:52:20.014Z,3.70
2017-10-30T14:54:46.301Z,3.45
2017-10-30T14:57:12.577Z,4.07
2017-10-30T14:59:38.884Z,2.83
2017-10-30T15:02:05.161Z,2.70
2017-10-30T15:04:31.862Z,3.40
2017-10-30T15:06:58.198Z,2.58
2017-10-30T15:09:24.517Z,3.17
2017-10-30T15:11:50.812Z,2.80
2017-10-30T15:14:17.481Z,2.92
2017-10-30T15:16:43.725Z,3.70
2017-10-30T15:19:09.997Z,3.62
2017-10-30T15:21:36.305Z,3.20
2017-10-30T15:24:02.570Z,3.70
2017-10-30T15:26:29.215Z,3.12
2017-10-30T15:28:55.515Z,4.25
2017-10-30T15:31:21.813Z,3.97
2017-10-30T15:33:48.090Z,3.58
2017-10-30T15:36:14.730Z,2.83
2017-10-30T15:38:41.370Z,2.22
2017-10-30T15:41:07.969Z,2.62
2017-10-30T15:43:34.239Z,2.30
2017-10-30T15:46:00.484Z,2.83
2017-10-30T15:48:26.759Z,3.72
2017-10-30T15:50:53.046Z,2.83
2017-10-30T15:53:19.382Z,3.05
2017-10-30T15:55:46.553Z,2.30
2017-10-30T15:58:12.800Z,2.53
2017-10-30T16:00:39.122Z,2.83
2017-10-30T16:03:05.395Z,2.70
2017-10-30T16:05:31.667Z,2.53
2017-10-30T16:07:57.933Z,3.25
2017-10-30T16:10:24.566Z,3.10
2017-10-30T16:12:50.871Z,2.90
2017-10-30T16:15:17.303Z,2.35
2017-10-30T16:17:43.617Z,2.90
2017-10-30T16:20:09.868Z,3.22
2017-10-30T16:22:36.131Z,4.30
2017-10-30T16:25:02.382Z,4.60
2017-10-30T16:27:28.742Z,4.65
2017-10-30T16:29:54.993Z,5.12
2017-10-30T16:32:21.283Z,3.87
2017-10-30T16:34:48.426Z,4.07
2017-10-30T16:37:16.535Z,3.78
2017-10-30T16:39:42.780Z,4.65
2017-10-30T16:42:09.066Z,4.72
2017-10-30T16:44:35.346Z,4.35
2017-10-30T16:47:01.666Z,4.82
2017-10-30T16:49:27.890Z,3.78
2017-10-30T16:51:54.257Z,4.18
2017-10-30T16:54:20.525Z,4.22
2017-10-30T16:56:46.814Z,3.92
2017-10-30T16:59:13.137Z,3.53
2017-10-30T17:01:39.832Z,3.37
2017-10-30T17:04:06.350Z,3.20
2017-10-30T17:06:32.581Z,4.35
2017-10-30T17:08:58.866Z,4.28
2017-10-30T17:11:25.089Z,4.15
2017-10-30T17:13:51.644Z,4.82
2017-10-30T17:16:17.928Z,8.35
2017-10-30T17:18:44.217Z,7.30
2017-10-30T17:21:10.478Z,8.18
2017-10-30T17:23:36.740Z,6.47
2017-10-30T17:26:03.346Z,6.60
2017-10-30T17:28:29.646Z,6.00
2017-10-30T17:30:55.958Z,6.97
2017-10-30T17:33:22.253Z,6.07
2017-10-30T17:35:48.932Z,7.05
2017-10-30T17:38:15.223Z,5.05
2017-10-30T17:40:41.533Z,5.25
2017-10-30T17:43:07.819Z,6.20
2017-10-30T17:45:34.087Z,6.30
2017-10-30T17:48:00.379Z,6.50
2017-10-30T17:50:27.502Z,7.95
2017-10-30T17:52:54.248Z,6.62
2017-10-30T17:55:20.550Z,7.07
2017-10-30T17:57:46.793Z,6.60
2017-10-30T18:00:13.470Z,7.12
2017-10-30T18:02:40.047Z,6.25
2017-10-30T18:05:06.475Z,6.70
2017-10-30T18:07:32.816Z,7.65
2017-10-30T18:09:59.572Z,7.10
2017-10-30T18:12:26.572Z,6.95
2017-10-30T18:14:53.132Z,8.40
2017-10-30T18:17:19.796Z,7.78
2017-10-30T18:19:46.330Z,7.40
2017-10-30T18:22:18.737Z,7.80
2017-10-30T18:24:45.181Z,5.75
2017-10-30T18:27:11.572Z,5.95
2017-10-30T18:29:38.196Z,5.90
2017-10-30T18:32:04.421Z,8.20
2017-10-30T18:34:31.969Z,6.37
2017-10-30T18:36:59.050Z,6.93
2017-10-30T18:39:25.951Z,7.62
2017-10-30T18:41:52.165Z,6.95
2017-10-30T18:44:18.518Z,7.68
2017-10-30T18:46:44.897Z,6.85
2017-10-30T18:49:11.252Z,6.82
2017-10-30T18:51:37.609Z,6.15
2017-10-30T18:54:03.857Z,7.55
2017-10-30T18:56:30.113Z,6.80
2017-10-30T18:58:56.655Z,6.05
2017-10-30T19:01:22.899Z,8.15
2017-10-30T19:03:49.256Z,8.02
2017-10-30T19:06:15.526Z,9.07
2017-10-30T19:08:43.449Z,8.85
2017-10-30T19:11:09.796Z,8.80
2017-10-30T19:13:36.113Z,8.98
2017-10-30T19:16:02.334Z,8.80
2017-10-30T19:18:28.595Z,7.72
2017-10-30T19:20:54.933Z,9.10
2017-10-30T19:23:21.710Z,8.73
2017-10-30T19:25:47.967Z,8.15
2017-10-30T19:28:14.313Z,7.37
2017-10-30T19:30:40.723Z,6.35
2017-10-30T19:33:07.028Z,8.10
2017-10-30T19:35:34.456Z,7.20
2017-10-30T19:38:00.815Z,11.40
2017-10-30T19:40:27.183Z,14.75
2017-10-30T19:42:53.510Z,12.25
2017-10-30T19:45:20.416Z,12.45
2017-10-30T19:47:46.765Z,11.05
2017-10-30T19:50:13.058Z,10.32
2017-10-30T19:52:40.002Z,18.73
2017-10-30T19:55:07.488Z,26.70
2017-10-30T19:57:33.733Z,14.48
2017-10-30T20:00:00.918Z,17.37
2017-10-30T20:02:27.597Z,16.12
2017-10-30T20:04:53.997Z,19.35
2017-10-30T20:10:22.945Z,14.00
2017-10-30T20:12:49.183Z,12.90
2017-10-30T20:15:15.456Z,13.20
2017-10-30T20:17:41.727Z,10.63
2017-10-30T20:20:08.007Z,13.32
2017-10-30T20:22:35.020Z,12.37
2017-10-30T20:25:01.352Z,11.07
2017-10-30T20:27:27.684Z,9.35
2017-10-30T20:29:53.993Z,11.52
2017-10-30T20:32:20.415Z,12.30
2017-10-30T20:34:46.680Z,14.00
2017-10-30T20:37:12.954Z,13.32
2017-10-30T20:39:39.719Z,11.38
2017-10-30T20:42:06.850Z,10.63
2017-10-30T20:44:35.617Z,13.77
2017-10-30T20:47:02.349Z,13.50
2017-10-30T20:49:29.578Z,15.32
2017-10-30T20:51:55.976Z,12.35
2017-10-30T20:54:22.534Z,9.73
2017-10-30T20:56:48.880Z,9.50
2017-10-30T20:59:15.211Z,9.88
2017-10-30T21:01:41.521Z,9.68
2017-10-30T21:04:07.922Z,9.13
2017-10-30T21:06:34.344Z,9.38
2017-10-30T21:09:00.973Z,9.45
2017-10-30T21:11:27.598Z,9.23
2017-10-30T21:13:54.901Z,10.02
2017-10-30T21:16:21.145Z,9.75
2017-10-30T21:18:47.406Z,8.93
2017-10-30T21:21:13.623Z,9.05
2017-10-30T21:23:39.953Z,9.43
2017-10-30T21:26:06.247Z,10.60
2017-10-30T21:28:33.580Z,8.75
2017-10-30T21:30:59.841Z,10.23
2017-10-30T21:33:26.058Z,9.50
2017-10-30T21:35:52.817Z,8.25
2017-10-30T21:38:19.071Z,10.05
2017-10-30T21:40:45.372Z,9.80
2017-10-30T21:43:11.655Z,9.85
2017-10-30T21:45:38.573Z,10.10
2017-10-30T21:48:05.317Z,8.90
2017-10-30T21:50:32.460Z,10.10
2017-10-30T21:52:59.625Z,9.60
2017-10-30T21:55:25.941Z,10.00
2017-10-30T21:57:52.198Z,10.30
2017-10-30T22:00:18.461Z,14.63
2017-10-30T22:02:44.767Z,14.10
2017-10-30T22:05:11.029Z,13.98
2017-10-30T22:07:37.248Z,10.48
2017-10-30T22:10:03.491Z,11.75
2017-10-30T22:12:30.783Z,11.50
2017-10-30T22:14:57.273Z,12.73
2017-10-30T22:17:23.576Z,12.20
2017-10-30T22:19:49.831Z,12.75
2017-10-30T22:22:16.074Z,12.35
2017-10-30T22:24:42.317Z,12.13
2017-10-30T22:27:08.551Z,12.98
2017-10-30T22:29:34.790Z,11.00
2017-10-30T22:32:01.038Z,10.60
2017-10-30T22:34:27.668Z,10.93
2017-10-30T22:36:54.736Z,10.95
2017-10-30T22:39:21.258Z,10.98
2017-10-30T22:41:48.122Z,9.65
2017-10-30T22:44:14.458Z,10.25
2017-10-30T22:46:40.687Z,10.60
2017-10-30T22:49:07.002Z,10.85
2017-10-30T22:51:33.196Z,10.27
2017-10-30T22:53:59.465Z,10.65
2017-10-30T22:56:25.701Z,11.10
2017-10-30T22:58:51.919Z,10.85
2017-10-30T23:01:18.158Z,12.02
2017-10-30T23:03:44.457Z,11.15
2017-10-30T23:06:11.070Z,14.00
2017-10-30T23:08:37.294Z,13.38
2017-10-30T23:11:03.545Z,13.00
2017-10-30T23:13:30.169Z,18.75
2017-10-30T23:15:56.398Z,16.67
2017-10-30T23:18:22.625Z,17.65
2017-10-30T23:20:48.830Z,17.48
2017-10-30T23:23:15.049Z,17.87
2017-10-30T23:25:41.275Z,15.65
2017-10-30T23:28:07.513Z,12.00
2017-10-30T23:30:33.784Z,10.63
2017-10-30T23:33:00.375Z,10.43
2017-10-30T23:35:26.607Z,9.80
2017-10-30T23:37:52.838Z,9.35
2017-10-30T23:40:19.094Z,8.68
2017-10-30T23:42:45.316Z,10.00
2017-10-30T23:45:12.050Z,9.13
2017-10-30T23:47:38.257Z,10.63
2017-10-30T23:50:04.489Z,10.40
2017-10-30T23:52:30.697Z,9.02
2017-10-30T23:54:56.945Z,9.55
2017-10-30T23:57:23.188Z,10.00
2017-10-30T23:59:49.407Z,9.98
